createdAt,value
2022-08-23T00:02:22.912Z,98049.53
2022-08-23T00:05:08.456Z,98058.66
2022-08-23T00:07:50.445Z,98060.38
2022-08-23T00:10:20.470Z,98064.06
2022-08-23T00:12:57.817Z,98057.75
2022-08-23T00:15:26.722Z,98060.81
2022-08-23T00:17:59.869Z,98058.75
2022-08-23T00:20:41.167Z,98068.22
2022-08-23T00:23:18.445Z,98057.97
2022-08-23T00:26:05.022Z,98072.91
2022-08-23T00:28:35.237Z,98075.53
2022-08-23T00:31:09.712Z,98067.22
2022-08-23T00:33:46.007Z,98068.84
2022-08-23T00:36:22.077Z,98076.16
2022-08-23T00:38:55.161Z,98072.75
2022-08-23T00:41:29.124Z,98073.03
2022-08-23T00:44:20.917Z,98062.28
2022-08-23T00:47:17.044Z,98062.09
2022-08-23T00:49:54.956Z,98062.91
2022-08-23T00:52:40.389Z,98060.94
2022-08-23T00:55:27.101Z,98059.16
2022-08-23T00:58:01.366Z,98066.44
2022-08-23T01:00:42.546Z,98059.22
2022-08-23T01:03:18.764Z,98056.69
2022-08-23T01:06:26.117Z,98061.84
2022-08-23T01:09:10.087Z,98063.19
2022-08-23T01:11:53.180Z,98038.97
2022-08-23T01:14:50.751Z,98065.00
2022-08-23T01:17:34.245Z,98071.41
2022-08-23T01:20:14.485Z,98074.22
2022-08-23T01:23:25.113Z,98068.44
2022-08-23T01:25:54.860Z,98071.34
2022-08-23T01:28:32.142Z,98074.28
2022-08-23T01:31:07.851Z,98079.53
2022-08-23T01:33:38.623Z,98077.16
2022-08-23T01:36:10.576Z,98069.50
2022-08-23T01:38:47.297Z,98055.28
2022-08-23T01:41:15.418Z,98068.09
2022-08-23T01:43:50.288Z,98067.38
2022-08-23T01:46:26.442Z,98058.97
2022-08-23T01:49:04.480Z,98073.56
2022-08-23T01:51:49.682Z,98068.91
2022-08-23T01:54:21.364Z,98036.28
2022-08-23T01:56:53.232Z,98061.41
2022-08-23T01:59:29.975Z,98064.22
2022-08-23T02:02:04.421Z,98070.53
2022-08-23T02:04:49.802Z,98062.50
2022-08-23T02:07:20.654Z,98074.00
2022-08-23T02:09:50.398Z,98068.09
2022-08-23T02:12:22.181Z,98079.28
2022-08-23T02:15:10.869Z,98082.31
2022-08-23T02:17:57.882Z,98080.16
2022-08-23T02:20:33.425Z,98084.56
2022-08-23T02:23:04.978Z,98078.91
2022-08-23T02:25:50.481Z,98080.22
2022-08-23T02:28:34.165Z,98089.34
2022-08-23T02:31:08.391Z,98089.06
2022-08-23T02:33:43.887Z,98073.47
2022-08-23T02:38:58.759Z,98087.00
2022-08-23T02:41:31.303Z,98090.44
2022-08-23T02:44:13.783Z,98090.06
2022-08-23T02:46:45.675Z,98074.72
2022-08-23T02:49:25.885Z,98088.78
2022-08-23T02:52:05.832Z,98098.56
2022-08-23T02:54:41.026Z,98092.69
2022-08-23T02:57:09.914Z,98088.91
2022-08-23T02:59:43.972Z,98101.78
2022-08-23T03:02:18.136Z,98094.22
2022-08-23T03:04:51.708Z,98099.06
2022-08-23T03:07:37.044Z,98095.31
2022-08-23T03:10:10.274Z,98101.44
2022-08-23T03:12:54.928Z,98098.00
2022-08-23T03:15:28.209Z,98101.72
2022-08-23T03:18:02.428Z,98090.44
2022-08-23T03:20:39.221Z,98086.84
2022-08-23T03:23:17.069Z,98113.69
2022-08-23T03:28:41.145Z,98112.69
2022-08-23T03:31:18.022Z,98111.16
2022-08-23T03:34:11.198Z,98112.06
2022-08-23T03:36:43.777Z,98117.38
2022-08-23T03:39:23.776Z,98114.03
2022-08-23T03:41:55.020Z,98127.28
2022-08-23T03:44:30.191Z,98122.44
2022-08-23T03:47:02.866Z,98119.53
2022-08-23T03:49:35.190Z,98120.06
2022-08-23T03:52:10.516Z,98122.44
2022-08-23T03:54:45.074Z,98130.81
2022-08-23T03:57:20.624Z,98133.25
2022-08-23T03:59:55.886Z,98134.31
2022-08-23T04:02:27.941Z,98119.91
2022-08-23T04:04:58.001Z,98142.34
2022-08-23T04:08:01.565Z,98136.84
2022-08-23T04:10:42.963Z,98132.88
2022-08-23T04:13:17.091Z,98144.84
2022-08-23T04:15:50.164Z,98146.41
2022-08-23T04:18:24.966Z,98116.53
2022-08-23T04:20:58.196Z,98151.00
2022-08-23T04:23:28.260Z,98130.59
2022-08-23T04:26:02.907Z,98137.13
2022-08-23T04:28:34.936Z,98147.56
2022-08-23T04:31:15.238Z,98151.63
2022-08-23T04:33:59.865Z,98151.81
2022-08-23T04:36:40.720Z,98167.22
2022-08-23T04:39:25.322Z,98170.94
2022-08-23T04:42:14.985Z,98178.06
2022-08-23T04:44:51.079Z,98174.44
2022-08-23T04:47:20.565Z,98184.91
2022-08-23T04:49:53.458Z,98183.09
2022-08-23T04:52:22.081Z,98185.44
2022-08-23T04:54:50.693Z,98184.81
2022-08-23T04:57:46.031Z,98188.88
2022-08-23T05:00:27.972Z,98198.16
2022-08-23T05:03:06.919Z,98199.59
2022-08-23T05:05:36.972Z,98202.94
2022-08-23T05:08:15.389Z,98195.94
2022-08-23T05:10:48.311Z,98200.84
2022-08-23T05:13:22.382Z,98209.78
2022-08-23T05:15:53.196Z,98206.19
2022-08-23T05:18:39.483Z,98207.34
2022-08-23T05:21:18.271Z,98211.63
2022-08-23T05:24:03.873Z,98192.78
2022-08-23T05:26:39.599Z,98218.84
2022-08-23T05:29:13.494Z,98219.28
2022-08-23T05:31:50.746Z,98220.53
2022-08-23T05:34:32.012Z,98224.59
2022-08-23T05:37:08.505Z,98221.28
2022-08-23T05:39:46.597Z,98229.31
2022-08-23T05:42:22.233Z,98230.84
2022-08-23T05:44:57.341Z,98236.44
2022-08-23T05:47:39.479Z,98235.63
2022-08-23T05:50:26.536Z,98225.84
2022-08-23T05:53:02.038Z,98235.25
2022-08-23T05:55:46.923Z,98243.53
2022-08-23T05:58:27.457Z,98243.19
2022-08-23T06:01:12.595Z,98250.06
2022-08-23T06:03:51.252Z,98246.19
2022-08-23T06:06:37.179Z,98248.25
2022-08-23T06:09:10.462Z,98244.72
2022-08-23T06:11:44.138Z,98247.63
2022-08-23T06:14:20.038Z,98246.69
2022-08-23T06:16:56.250Z,98242.84
2022-08-23T06:19:36.756Z,98245.63
2022-08-23T06:22:34.005Z,98243.28
2022-08-23T06:25:19.310Z,98247.91
2022-08-23T06:28:10.401Z,98233.84
2022-08-23T06:30:43.109Z,98250.72
2022-08-23T06:33:31.066Z,98246.16
2022-08-23T06:36:34.320Z,98247.78
2022-08-23T06:39:37.988Z,98241.88
2022-08-23T06:42:38.313Z,98244.75
2022-08-23T06:45:13.980Z,98248.34
2022-08-23T06:48:04.625Z,98253.66
2022-08-23T06:50:39.204Z,98259.91
2022-08-23T06:53:39.895Z,98260.72
2022-08-23T06:56:40.735Z,98264.41
2022-08-23T06:59:24.335Z,98269.19
2022-08-23T07:02:21.130Z,98272.81
2022-08-23T07:05:11.070Z,98275.75
2022-08-23T07:08:01.491Z,98278.91
2022-08-23T07:10:29.767Z,98287.47
2022-08-23T07:13:03.110Z,98293.59
2022-08-23T07:15:35.125Z,98291.97
2022-08-23T07:18:11.006Z,98260.47
2022-08-23T07:20:46.116Z,98286.09
2022-08-23T07:23:23.062Z,98291.22
2022-08-23T07:26:20.375Z,98298.88
2022-08-23T07:28:52.690Z,98294.09
2022-08-23T07:31:30.246Z,98291.47
2022-08-23T07:34:07.357Z,98300.06
2022-08-23T07:36:56.822Z,98296.97
2022-08-23T07:39:47.490Z,98307.66
2022-08-23T07:42:23.496Z,98298.63
2022-08-23T07:45:02.182Z,98314.31
2022-08-23T07:47:34.133Z,98313.00
2022-08-23T07:50:07.898Z,98316.16
2022-08-23T07:52:39.710Z,98310.41
2022-08-23T07:55:12.775Z,98315.38
2022-08-23T07:58:13.790Z,98310.88
2022-08-23T08:01:27.206Z,98319.72
2022-08-23T08:04:01.170Z,98332.88
2022-08-23T08:09:35.125Z,98332.22
2022-08-23T08:12:05.837Z,98331.31
2022-08-23T08:14:42.499Z,98335.25
2022-08-23T08:17:17.929Z,98333.28
2022-08-23T08:20:18.389Z,98329.28
2022-08-23T08:23:23.087Z,98325.31
2022-08-23T08:26:16.724Z,98324.78
2022-08-23T08:29:00.780Z,98326.81
2022-08-23T08:31:34.100Z,98320.91
2022-08-23T08:34:05.458Z,98327.47
2022-08-23T08:37:13.792Z,98318.94
2022-08-23T08:39:48.666Z,98320.81
2022-08-23T08:43:09.416Z,98326.22
2022-08-23T08:46:07.987Z,98322.69
2022-08-23T08:48:48.277Z,98299.25
2022-08-23T08:52:05.300Z,98322.00
2022-08-23T08:54:48.163Z,98316.78
2022-08-23T08:57:32.724Z,98320.13
2022-08-23T09:00:16.890Z,98320.63
2022-08-23T09:02:52.265Z,98327.09
2022-08-23T09:05:34.737Z,98319.13
2022-08-23T09:08:41.429Z,98326.53
2022-08-23T09:11:41.362Z,98322.47
2022-08-23T09:14:55.225Z,98318.84
2022-08-23T09:17:52.894Z,98317.50
2022-08-23T09:20:33.380Z,98314.69
2022-08-23T09:23:35.399Z,98314.63
2022-08-23T09:26:23.660Z,98312.94
2022-08-23T09:29:08.642Z,98306.97
2022-08-23T09:31:54.561Z,98316.19
2022-08-23T09:34:44.286Z,98322.59
2022-08-23T09:37:32.455Z,98317.19
2022-08-23T09:40:20.968Z,98303.41
2022-08-23T09:43:18.928Z,98319.00
2022-08-23T09:45:52.469Z,98324.06
2022-08-23T09:48:56.397Z,98314.38
2022-08-23T09:51:42.839Z,98313.06
2022-08-23T09:54:36.383Z,98322.19
2022-08-23T09:57:18.482Z,98322.47
2022-08-23T09:59:52.015Z,98325.31
2022-08-23T10:02:32.456Z,98311.28
2022-08-23T10:05:52.727Z,98322.06
2022-08-23T10:08:29.700Z,98321.03
2022-08-23T10:11:13.323Z,98322.50
2022-08-23T10:13:55.680Z,98301.09
2022-08-23T10:16:51.320Z,98320.06
2022-08-23T10:20:02.774Z,98323.09
2022-08-23T10:22:46.231Z,98298.66
2022-08-23T10:25:44.618Z,98315.13
2022-08-23T10:29:15.513Z,98321.56
2022-08-23T10:32:05.257Z,98313.75
2022-08-23T10:35:10.247Z,98312.78
2022-08-23T10:38:33.217Z,98316.16
2022-08-23T10:41:45.598Z,98334.91
2022-08-23T10:44:33.257Z,98334.94
2022-08-23T10:47:46.474Z,98329.78
2022-08-23T10:50:29.852Z,98343.34
2022-08-23T10:56:24.595Z,98341.09
2022-08-23T10:59:22.861Z,98350.28
2022-08-23T11:02:43.861Z,98353.16
2022-08-23T11:05:44.087Z,98346.28
2022-08-23T11:08:51.821Z,98349.53
2022-08-23T11:11:56.301Z,98332.84
2022-08-23T11:14:50.680Z,98332.44
2022-08-23T11:18:02.472Z,98336.25
2022-08-23T11:20:59.115Z,98332.38
2022-08-23T11:23:58.544Z,98323.59
2022-08-23T11:26:51.390Z,98332.22
2022-08-23T11:29:32.205Z,98323.25
2022-08-23T11:32:46.574Z,98331.56
2022-08-23T11:35:48.208Z,98325.22
2022-08-23T11:38:58.919Z,98329.56
2022-08-23T11:41:36.652Z,98313.13
2022-08-23T11:44:17.885Z,98309.66
2022-08-23T11:50:16.608Z,98309.38
2022-08-23T11:53:28.276Z,98305.00
2022-08-23T11:56:23.102Z,98300.59
2022-08-23T11:59:33.470Z,98298.31
2022-08-23T12:02:38.021Z,98304.44
2022-08-23T12:05:27.333Z,98303.03
2022-08-23T12:08:37.200Z,98288.00
2022-08-23T12:11:13.501Z,98298.03
2022-08-23T12:14:40.277Z,98283.53
2022-08-23T12:17:19.330Z,98286.41
2022-08-23T12:20:00.882Z,98288.34
2022-08-23T12:22:39.675Z,98287.19
2022-08-23T12:25:10.674Z,98284.13
2022-08-23T12:28:03.541Z,98268.47
2022-08-23T12:30:59.401Z,98281.78
2022-08-23T12:34:05.494Z,98270.19
2022-08-23T12:36:56.538Z,98269.72
2022-08-23T12:39:50.366Z,98275.59
2022-08-23T12:42:28.138Z,98265.56
2022-08-23T12:45:20.337Z,98265.94
2022-08-23T12:48:06.831Z,98255.75
2022-08-23T12:50:40.395Z,98259.13
2022-08-23T12:53:48.053Z,98251.66
2022-08-23T12:56:42.617Z,98242.34
2022-08-23T12:59:37.404Z,98254.09
2022-08-23T13:02:13.269Z,98238.56
2022-08-23T13:05:00.905Z,98233.72
2022-08-23T13:07:39.633Z,98252.06
2022-08-23T13:10:16.365Z,98247.69
2022-08-23T13:12:49.251Z,98255.56
2022-08-23T13:15:45.635Z,98258.22
2022-08-23T13:18:33.756Z,98252.97
2022-08-23T13:21:40.032Z,98251.88
2022-08-23T13:25:11.483Z,98246.78
2022-08-23T13:28:23.796Z,98247.56
2022-08-23T13:31:06.875Z,98244.53
2022-08-23T13:33:36.811Z,98239.16
2022-08-23T13:36:21.677Z,98225.06
2022-08-23T13:38:54.633Z,98227.81
2022-08-23T13:42:01.840Z,98240.38
2022-08-23T13:44:35.167Z,98242.84
2022-08-23T13:49:55.521Z,98234.38
2022-08-23T13:55:22.892Z,98236.31
2022-08-23T13:57:56.543Z,98235.13
2022-08-23T14:00:29.692Z,98219.13
2022-08-23T14:02:58.993Z,98234.88
2022-08-23T14:05:38.992Z,98231.56
2022-08-23T14:08:10.036Z,98235.19
2022-08-23T14:10:44.866Z,98235.91
2022-08-23T14:13:23.801Z,98236.75
2022-08-23T14:15:57.156Z,98236.69
2022-08-23T14:19:15.123Z,98237.06
2022-08-23T14:21:32.505Z,98228.41
2022-08-23T14:24:11.962Z,98226.47
2022-08-23T14:26:51.797Z,98232.53
2022-08-23T14:29:30.232Z,98230.31
2022-08-23T14:32:10.744Z,98222.09
2022-08-23T14:34:43.590Z,98238.66
2022-08-23T14:38:02.060Z,98224.88
2022-08-23T14:40:20.706Z,98233.16
2022-08-23T14:43:05.393Z,98177.84
2022-08-23T14:45:42.729Z,98239.00
2022-08-23T14:48:15.055Z,98237.66
2022-08-23T14:50:46.715Z,98249.81
2022-08-23T14:53:18.757Z,98250.00
2022-08-23T14:56:12.303Z,98242.38
2022-08-23T14:58:48.428Z,98246.13
2022-08-23T15:01:26.276Z,98242.38
2022-08-23T15:03:59.004Z,98226.47
2022-08-23T15:07:06.835Z,98222.06
2022-08-23T15:09:36.908Z,98243.50
2022-08-23T15:15:36.732Z,98243.34
2022-08-23T15:18:12.195Z,98244.06
2022-08-23T15:20:48.496Z,98232.88
2022-08-23T15:23:29.896Z,98240.22
2022-08-23T15:25:59.382Z,98222.41
2022-08-23T15:28:35.100Z,98241.44
2022-08-23T15:31:10.644Z,98224.88
2022-08-23T15:33:46.241Z,98241.81
2022-08-23T15:36:19.468Z,98240.75
2022-08-23T15:38:50.625Z,98249.03
2022-08-23T15:41:28.174Z,98257.16
2022-08-23T15:44:04.859Z,98251.53
2022-08-23T15:46:44.771Z,98247.94
2022-08-23T15:49:26.440Z,98254.41
2022-08-23T15:52:03.663Z,98254.81
2022-08-23T15:54:32.051Z,98254.88
2022-08-23T15:57:03.894Z,98240.03
2022-08-23T15:59:37.110Z,98253.97
2022-08-23T16:02:08.976Z,98249.31
2022-08-23T16:04:44.767Z,98250.63
2022-08-23T16:07:19.351Z,98259.81
2022-08-23T16:09:50.410Z,98252.78
2022-08-23T16:12:34.076Z,98262.75
2022-08-23T16:15:08.454Z,98256.75
2022-08-23T16:17:40.631Z,98258.97
2022-08-23T16:20:15.406Z,98256.38
2022-08-23T16:22:51.223Z,98257.16
2022-08-23T16:25:36.943Z,98270.16
2022-08-23T16:28:14.365Z,98258.34
2022-08-23T16:30:46.193Z,98259.53
2022-08-23T16:33:30.895Z,98265.06
2022-08-23T16:36:01.276Z,98259.72
2022-08-23T16:38:36.136Z,98268.06
2022-08-23T16:41:07.251Z,98263.63
2022-08-23T16:43:52.496Z,98258.66
2022-08-23T16:46:27.161Z,98272.09
2022-08-23T16:48:59.392Z,98270.94
2022-08-23T16:51:30.380Z,98258.88
2022-08-23T16:54:03.470Z,98270.66
2022-08-23T16:56:42.604Z,98258.13
2022-08-23T16:59:14.649Z,98286.00
2022-08-23T17:02:11.006Z,98277.47
2022-08-23T17:04:57.773Z,98264.50
2022-08-23T17:07:29.035Z,98277.78
2022-08-23T17:10:03.758Z,98289.50
2022-08-23T17:12:46.975Z,98288.63
2022-08-23T17:15:27.617Z,98294.22
2022-08-23T17:17:58.412Z,98297.72
2022-08-23T17:20:45.807Z,98299.41
2022-08-23T17:23:23.041Z,98292.97
2022-08-23T17:26:07.056Z,98294.91
2022-08-23T17:28:41.859Z,98297.28
2022-08-23T17:31:13.127Z,98308.44
2022-08-23T17:33:49.389Z,98305.25
2022-08-23T17:36:54.442Z,98305.63
2022-08-23T17:39:28.915Z,98313.66
2022-08-23T17:42:01.420Z,98312.38
2022-08-23T17:44:38.590Z,98324.81
2022-08-23T17:47:13.836Z,98321.91
2022-08-23T17:49:48.153Z,98301.59
2022-08-23T17:52:20.644Z,98323.06
2022-08-23T17:54:56.852Z,98330.22
2022-08-23T17:57:32.439Z,98325.59
2022-08-23T18:00:06.478Z,98333.75
2022-08-23T18:02:54.432Z,98337.97
2022-08-23T18:05:29.720Z,98333.13
2022-08-23T18:07:59.590Z,98312.47
2022-08-23T18:10:30.214Z,98349.94
2022-08-23T18:13:10.943Z,98351.97
2022-08-23T18:15:42.950Z,98353.09
2022-08-23T18:18:29.042Z,98358.19
2022-08-23T18:20:58.745Z,98358.19
2022-08-23T18:23:33.628Z,98364.31
2022-08-23T18:26:35.207Z,98364.50
2022-08-23T18:29:23.292Z,98357.28
2022-08-23T18:32:00.479Z,98366.13
2022-08-23T18:34:32.926Z,98374.19
2022-08-23T18:37:02.920Z,98375.75
2022-08-23T18:39:46.060Z,98384.09
2022-08-23T18:42:25.821Z,98387.25
2022-08-23T18:45:10.252Z,98392.97
2022-08-23T18:47:50.023Z,98395.81
2022-08-23T18:50:20.615Z,98399.44
2022-08-23T18:52:51.714Z,98405.50
2022-08-23T18:55:20.419Z,98408.25
2022-08-23T18:57:51.104Z,98405.91
2022-08-23T19:00:24.984Z,98415.84
2022-08-23T19:03:00.873Z,98422.13
2022-08-23T19:05:41.757Z,98421.25
2022-08-23T19:08:16.460Z,98422.91
2022-08-23T19:10:59.399Z,98423.97
2022-08-23T19:13:29.348Z,98425.44
2022-08-23T19:16:03.482Z,98391.63
2022-08-23T19:18:38.996Z,98415.88
2022-08-23T19:21:13.219Z,98422.81
2022-08-23T19:23:52.109Z,98431.66
2022-08-23T19:26:38.466Z,98443.00
2022-08-23T19:29:13.637Z,98460.66
2022-08-23T19:31:48.832Z,98458.66
2022-08-23T19:34:38.656Z,98403.09
2022-08-23T19:37:22.213Z,98435.75
2022-08-23T19:42:45.193Z,98462.38
2022-08-23T19:45:21.784Z,98463.19
2022-08-23T19:47:55.544Z,98463.66
2022-08-23T19:50:27.036Z,98462.63
2022-08-23T19:53:04.811Z,98465.28
2022-08-23T19:55:42.452Z,98448.66
2022-08-23T19:58:17.008Z,98464.25
2022-08-23T20:00:54.859Z,98460.78
2022-08-23T20:03:24.009Z,98453.16
2022-08-23T20:05:54.625Z,98482.75
2022-08-23T20:11:15.620Z,98475.97
2022-08-23T20:13:57.748Z,98494.22
2022-08-23T20:16:35.770Z,98488.03
2022-08-23T20:19:12.753Z,98490.03
2022-08-23T20:21:42.626Z,98508.94
2022-08-23T20:24:15.862Z,98489.03
2022-08-23T20:26:55.270Z,98494.06
2022-08-23T20:29:28.367Z,98496.56
2022-08-23T20:32:04.254Z,98494.94
2022-08-23T20:34:41.659Z,98508.34
2022-08-23T20:37:12.676Z,98504.16
2022-08-23T20:39:48.716Z,98509.88
2022-08-23T20:42:26.261Z,98507.28
2022-08-23T20:44:55.775Z,98513.13
2022-08-23T20:47:30.055Z,98527.53
2022-08-23T20:50:05.910Z,98528.19
2022-08-23T20:52:46.833Z,98532.63
2022-08-23T20:55:22.600Z,98526.53
2022-08-23T20:57:52.807Z,98528.63
2022-08-23T21:00:26.282Z,98527.78
2022-08-23T21:02:58.989Z,98542.47
2022-08-23T21:05:37.285Z,98540.97
2022-08-23T21:11:01.565Z,98548.34
2022-08-23T21:13:36.845Z,98524.19
2022-08-23T21:16:19.597Z,98548.47
2022-08-23T21:19:00.715Z,98540.78
2022-08-23T21:21:32.226Z,98542.84
2022-08-23T21:24:03.988Z,98545.66
2022-08-23T21:26:51.150Z,98543.47
2022-08-23T21:29:21.371Z,98530.91
2022-08-23T21:31:53.518Z,98546.56
2022-08-23T21:34:25.705Z,98547.84
2022-08-23T21:36:56.921Z,98555.06
2022-08-23T21:39:32.478Z,98542.50
2022-08-23T21:42:15.341Z,98548.47
2022-08-23T21:44:51.818Z,98552.84
2022-08-23T21:47:28.623Z,98556.75
2022-08-23T21:50:12.102Z,98549.97
2022-08-23T21:52:42.725Z,98543.38
2022-08-23T21:55:20.944Z,98544.94
2022-08-23T21:58:01.463Z,98542.47
2022-08-23T22:00:35.912Z,98537.59
2022-08-23T22:03:16.901Z,98538.53
2022-08-23T22:05:49.677Z,98528.81
2022-08-23T22:08:23.092Z,98535.91
2022-08-23T22:11:05.582Z,98535.34
2022-08-23T22:13:41.735Z,98532.72
2022-08-23T22:16:10.841Z,98518.78
2022-08-23T22:18:48.572Z,98544.47
2022-08-23T22:21:23.805Z,98536.09
2022-08-23T22:23:59.463Z,98535.84
2022-08-23T22:26:30.736Z,98529.50
2022-08-23T22:29:02.187Z,98526.25
2022-08-23T22:31:37.617Z,98513.69
2022-08-23T22:34:17.119Z,98523.63
2022-08-23T22:36:52.251Z,98496.91
2022-08-23T22:39:20.922Z,98522.06
2022-08-23T22:41:55.306Z,98518.31
2022-08-23T22:44:25.190Z,98516.31
2022-08-23T22:46:58.468Z,98507.97
2022-08-23T22:49:49.669Z,98506.34
2022-08-23T22:52:27.148Z,98514.38
2022-08-23T22:54:57.444Z,98506.09
2022-08-23T22:57:29.132Z,98502.94
2022-08-23T23:00:10.910Z,98509.63
2022-08-23T23:02:48.655Z,98514.25
2022-08-23T23:05:22.811Z,98502.31
2022-08-23T23:08:11.831Z,98503.03
2022-08-23T23:10:56.121Z,98500.63
2022-08-23T23:13:28.865Z,98515.19
2022-08-23T23:16:02.423Z,98510.06
2022-08-23T23:18:38.693Z,98507.16
2022-08-23T23:21:09.176Z,98501.09
2022-08-23T23:23:46.128Z,98511.69
2022-08-23T23:26:17.875Z,98502.63
2022-08-23T23:28:57.181Z,98501.53
2022-08-23T23:31:28.800Z,98498.28
2022-08-23T23:34:00.725Z,98505.97
2022-08-23T23:36:33.277Z,98501.75
2022-08-23T23:39:03.635Z,98498.84
2022-08-23T23:41:37.415Z,98495.84
2022-08-23T23:44:06.690Z,98513.81
2022-08-23T23:46:36.427Z,98504.88
2022-08-23T23:49:12.653Z,98513.63
2022-08-23T23:51:47.622Z,98496.47
2022-08-23T23:54:22.276Z,98513.97
2022-08-23T23:56:58.756Z,98507.50
2022-08-23T23:59:36.010Z,98503.25
